Time;durP1;ratioP1;P1;durP2;ratioP2;P2;SDS_P1;SDS_P2;PMS_P1;PMS_P2;Temp;Humidity;BMP_temperature;BMP_pressure;BME280_temperature;BME280_humidity;BME280_pressure;Samples;Min_cycle;Max_cycle;Signal;HPM_P1;HPM_P2
2023/06/05 00:01:44;;;;;;;2.28;2.17;;;;;;;;;;5076990;28;20219;-69
2023/06/05 00:04:10;;;;;;;3.10;2.30;;;;;;;;;;5076674;28;20208;-69
2023/06/05 00:06:38;;;;;;;2.95;2.50;;;;;;;;;;5076283;28;20279;-69
2023/06/05 00:09:04;;;;;;;3.92;2.60;;;;;;;;;;5068536;28;20208;-69
2023/06/05 00:11:30;;;;;;;2.42;2.30;;;;;;;;;;5076472;28;20208;-69
2023/06/05 00:13:57;;;;;;;4.40;2.20;;;;;;;;;;5076490;28;20602;-69
2023/06/05 00:16:23;;;;;;;2.30;2.20;;;;;;;;;;5076193;28;20228;-69
2023/06/05 00:18:50;;;;;;;2.42;2.30;;;;;;;;;;5074349;28;20211;-69
2023/06/05 00:21:16;;;;;;;2.50;2.40;;;;;;;;;;5069712;28;20354;-69
2023/06/05 00:23:44;;;;;;;4.30;2.35;;;;;;;;;;5076294;28;20212;-69
2023/06/05 00:26:10;;;;;;;2.63;2.38;;;;;;;;;;5068279;28;20204;-69
2023/06/05 00:28:38;;;;;;;3.80;2.13;;;;;;;;;;5076616;28;20293;-69
2023/06/05 00:31:05;;;;;;;2.72;2.55;;;;;;;;;;5076381;28;20426;-69
2023/06/05 00:33:31;;;;;;;2.38;2.25;;;;;;;;;;5076386;28;20208;-69
2023/06/05 00:35:57;;;;;;;2.63;2.33;;;;;;;;;;5077091;28;20220;-69
2023/06/05 00:38:23;;;;;;;2.63;2.42;;;;;;;;;;5080205;28;20250;-70
2023/06/05 00:40:51;;;;;;;2.80;2.60;;;;;;;;;;5080120;28;20212;-70
2023/06/05 00:43:17;;;;;;;3.33;2.40;;;;;;;;;;5079821;28;20230;-69
2023/06/05 00:45:44;;;;;;;2.38;2.28;;;;;;;;;;5079768;28;20216;-69
2023/06/05 00:48:11;;;;;;;2.65;2.50;;;;;;;;;;5079991;28;20246;-69
2023/06/05 00:50:37;;;;;;;4.47;2.72;;;;;;;;;;5080102;28;20376;-69
2023/06/05 00:53:04;;;;;;;4.07;3.03;;;;;;;;;;5080308;28;20250;-69
2023/06/05 00:55:30;;;;;;;2.67;2.47;;;;;;;;;;5080036;28;20220;-69
2023/06/05 00:57:58;;;;;;;2.78;2.63;;;;;;;;;;5079847;28;20314;-69
2023/06/05 01:00:25;;;;;;;4.50;3.08;;;;;;;;;;5079890;28;20358;-69
2023/06/05 01:02:53;;;;;;;4.70;2.30;;;;;;;;;;5079546;28;20218;-69
2023/06/05 01:05:19;;;;;;;3.00;2.47;;;;;;;;;;5079362;28;20232;-69
2023/06/05 01:07:47;;;;;;;2.35;2.25;;;;;;;;;;5079332;28;20542;-69
2023/06/05 01:10:14;;;;;;;4.72;2.63;;;;;;;;;;5079579;28;20215;-69
2023/06/05 01:12:44;;;;;;;2.35;2.25;;;;;;;;;;5079634;28;20221;-70
2023/06/05 01:15:12;;;;;;;2.67;2.58;;;;;;;;;;5071649;28;20208;-69
2023/06/05 01:17:39;;;;;;;3.60;2.58;;;;;;;;;;5079322;28;20212;-69
2023/06/05 01:20:08;;;;;;;2.72;2.60;;;;;;;;;;5079094;28;20208;-69
2023/06/05 01:22:37;;;;;;;3.63;2.45;;;;;;;;;;5079415;28;20523;-69
2023/06/05 01:25:05;;;;;;;2.72;2.35;;;;;;;;;;5077717;28;20212;-69
2023/06/05 01:27:35;;;;;;;2.63;2.42;;;;;;;;;;5078851;28;20221;-69
2023/06/05 01:30:03;;;;;;;5.68;2.63;;;;;;;;;;5078858;28;20208;-69
2023/06/05 01:32:36;;;;;;;5.13;2.85;;;;;;;;;;5079337;28;20208;-69
2023/06/05 01:35:03;;;;;;;2.67;2.53;;;;;;;;;;5078624;28;20212;-69
2023/06/05 01:37:40;;;;;;;2.85;2.50;;;;;;;;;;5079072;28;20346;-69
2023/06/05 01:40:10;;;;;;;4.00;2.80;;;;;;;;;;5078902;28;20532;-69
2023/06/05 01:42:37;;;;;;;3.47;2.70;;;;;;;;;;5078892;28;20213;-69
2023/06/05 01:45:04;;;;;;;3.85;2.55;;;;;;;;;;5078493;28;20397;-69
2023/06/05 01:47:31;;;;;;;3.05;2.78;;;;;;;;;;5078138;28;20204;-69
2023/06/05 01:49:57;;;;;;;3.15;2.65;;;;;;;;;;5078758;28;20212;-69
2023/06/05 01:52:23;;;;;;;2.88;2.60;;;;;;;;;;5078655;28;20200;-69
2023/06/05 01:54:50;;;;;;;2.88;2.65;;;;;;;;;;5078881;28;20298;-69
2023/06/05 01:57:17;;;;;;;3.10;2.78;;;;;;;;;;5078588;28;20220;-69
2023/06/05 01:59:45;;;;;;;2.53;2.38;;;;;;;;;;5078608;28;20220;-69
2023/06/05 02:02:11;;;;;;;2.50;2.35;;;;;;;;;;5070523;28;20253;-69
2023/06/05 02:04:38;;;;;;;2.38;2.28;;;;;;;;;;5078243;28;20218;-69
2023/06/05 02:07:05;;;;;;;2.90;2.72;;;;;;;;;;5077996;28;20231;-69
2023/06/05 02:09:33;;;;;;;2.83;2.63;;;;;;;;;;5078410;28;20381;-69
2023/06/05 02:12:03;;;;;;;3.03;2.63;;;;;;;;;;5078236;28;20236;-69
2023/06/05 02:14:31;;;;;;;3.22;2.83;;;;;;;;;;5078323;28;20249;-69
2023/06/05 02:16:58;;;;;;;2.65;2.55;;;;;;;;;;5078042;28;20235;-69
2023/06/05 02:19:24;;;;;;;2.70;2.50;;;;;;;;;;5078096;28;20532;-69
2023/06/05 02:21:51;;;;;;;4.70;2.75;;;;;;;;;;5078378;28;20385;-69
2023/06/05 02:24:18;;;;;;;3.03;2.78;;;;;;;;;;5078083;28;20216;-69
2023/06/05 02:26:44;;;;;;;2.80;2.60;;;;;;;;;;5074837;28;20251;-69
2023/06/05 02:29:12;;;;;;;3.10;2.90;;;;;;;;;;5069887;28;20228;-69
2023/06/05 02:31:39;;;;;;;2.65;2.35;;;;;;;;;;5078022;28;20525;-69
2023/06/05 02:34:06;;;;;;;3.13;2.88;;;;;;;;;;5077631;28;20254;-69
2023/06/05 02:36:32;;;;;;;3.30;2.45;;;;;;;;;;5077741;28;20283;-69
2023/06/05 02:38:59;;;;;;;2.83;2.53;;;;;;;;;;5077791;28;20212;-68
2023/06/05 02:41:26;;;;;;;5.03;2.90;;;;;;;;;;5077754;28;20215;-68
2023/06/05 02:43:53;;;;;;;2.60;2.45;;;;;;;;;;5077432;28;20258;-69
2023/06/05 02:46:19;;;;;;;2.85;2.65;;;;;;;;;;5077774;28;20209;-69
2023/06/05 02:48:47;;;;;;;7.10;3.08;;;;;;;;;;5077631;28;20281;-69
2023/06/05 02:51:13;;;;;;;4.05;2.58;;;;;;;;;;5077819;28;20410;-69
2023/06/05 02:53:39;;;;;;;3.17;2.88;;;;;;;;;;5078110;28;20212;-69
2023/06/05 02:56:06;;;;;;;2.92;2.72;;;;;;;;;;5077396;28;20220;-69
2023/06/05 02:58:33;;;;;;;2.75;2.65;;;;;;;;;;5077288;28;20532;-69
2023/06/05 03:01:01;;;;;;;2.70;2.50;;;;;;;;;;5076675;28;20284;-69
2023/06/05 03:03:29;;;;;;;3.13;2.80;;;;;;;;;;5077511;28;20699;-69
2023/06/05 03:05:56;;;;;;;3.20;3.00;;;;;;;;;;5077346;28;20458;-69
2023/06/05 03:08:23;;;;;;;3.45;3.25;;;;;;;;;;5077232;28;20212;-69
2023/06/05 03:10:50;;;;;;;3.10;2.90;;;;;;;;;;5077188;28;20532;-68
2023/06/05 03:13:17;;;;;;;3.30;3.00;;;;;;;;;;5077181;28;20420;-69
2023/06/05 03:15:43;;;;;;;3.60;2.65;;;;;;;;;;5076901;28;20228;-69
2023/06/05 03:18:09;;;;;;;3.85;2.85;;;;;;;;;;5077359;28;20232;-69
2023/06/05 03:20:38;;;;;;;4.82;3.20;;;;;;;;;;5077481;28;20216;-69
2023/06/05 03:23:05;;;;;;;3.80;3.50;;;;;;;;;;5077310;28;20626;-69
2023/06/05 03:25:32;;;;;;;3.65;3.40;;;;;;;;;;5072237;28;20436;-69
2023/06/05 03:27:58;;;;;;;2.97;2.78;;;;;;;;;;5076819;28;20231;-69
2023/06/05 03:30:24;;;;;;;3.28;3.08;;;;;;;;;;5077036;28;20262;-69
2023/06/05 03:32:51;;;;;;;3.63;3.33;;;;;;;;;;5076778;28;20239;-69
2023/06/05 03:35:18;;;;;;;5.82;3.30;;;;;;;;;;5076737;28;20247;-69
2023/06/05 03:37:44;;;;;;;9.50;3.40;;;;;;;;;;5076839;28;20235;-69
2023/06/05 03:40:13;;;;;;;3.53;3.22;;;;;;;;;;5076684;28;20544;-69
2023/06/05 03:42:39;;;;;;;4.00;3.20;;;;;;;;;;5076723;28;20311;-69
2023/06/05 03:45:06;;;;;;;5.70;3.10;;;;;;;;;;5076611;28;20216;-69
2023/06/05 03:47:34;;;;;;;3.95;3.08;;;;;;;;;;5077086;28;20543;-69
2023/06/05 03:50:00;;;;;;;3.08;2.83;;;;;;;;;;5077018;28;20528;-69
2023/06/05 03:52:27;;;;;;;3.40;3.13;;;;;;;;;;5076886;28;20533;-69
2023/06/05 03:54:55;;;;;;;2.90;2.72;;;;;;;;;;5076588;28;20266;-69
2023/06/05 03:57:23;;;;;;;3.30;3.00;;;;;;;;;;5076446;28;20685;-69
2023/06/05 03:59:49;;;;;;;4.10;3.42;;;;;;;;;;5076532;28;20250;-69
2023/06/05 04:02:15;;;;;;;3.20;3.00;;;;;;;;;;5076878;28;20223;-69
2023/06/05 04:04:41;;;;;;;4.28;3.47;;;;;;;;;;5076904;28;20212;-69
2023/06/05 04:07:08;;;;;;;3.63;3.42;;;;;;;;;;5076353;28;20465;-69
2023/06/05 04:09:34;;;;;;;3.22;3.00;;;;;;;;;;5076355;28;20415;-69
2023/06/05 04:12:00;;;;;;;3.22;2.97;;;;;;;;;;5076013;28;20218;-69
2023/06/05 04:14:28;;;;;;;3.40;3.10;;;;;;;;;;5077351;28;20281;-69
2023/06/05 04:16:54;;;;;;;4.45;3.40;;;;;;;;;;5077258;28;20235;-68
2023/06/05 04:19:21;;;;;;;3.60;3.30;;;;;;;;;;5077145;28;20209;-69
2023/06/05 04:21:47;;;;;;;5.03;3.60;;;;;;;;;;5076488;28;20208;-69
2023/06/05 04:24:13;;;;;;;5.03;3.53;;;;;;;;;;5076307;28;20212;-68
2023/06/05 04:26:41;;;;;;;5.50;3.75;;;;;;;;;;5070986;28;20529;-68
2023/06/05 04:29:13;;;;;;;4.30;3.90;;;;;;;;;;5076046;28;20323;-68
2023/06/05 04:31:40;;;;;;;7.57;3.78;;;;;;;;;;5076198;28;20243;-68
2023/06/05 04:34:07;;;;;;;5.03;3.72;;;;;;;;;;5076260;28;20524;-68
2023/06/05 04:36:34;;;;;;;4.18;3.78;;;;;;;;;;5075965;28;20296;-68
2023/06/05 04:39:00;;;;;;;3.90;3.47;;;;;;;;;;5075951;28;20219;-68
2023/06/05 04:41:29;;;;;;;4.38;3.65;;;;;;;;;;5076203;28;20232;-68
2023/06/05 04:43:57;;;;;;;6.03;3.60;;;;;;;;;;5076040;28;20243;-68
2023/06/05 04:46:23;;;;;;;4.10;3.80;;;;;;;;;;5075955;28;20275;-68
2023/06/05 04:48:55;;;;;;;5.80;4.20;;;;;;;;;;5076444;28;20225;-68
2023/06/05 04:51:22;;;;;;;4.60;4.07;;;;;;;;;;5076144;28;20216;-68
2023/06/05 04:53:50;;;;;;;4.00;3.70;;;;;;;;;;5076377;28;20236;-68
2023/06/05 04:56:16;;;;;;;4.13;3.83;;;;;;;;;;5076268;28;20239;-68
2023/06/05 04:58:42;;;;;;;4.60;4.20;;;;;;;;;;5076082;28;20262;-68
2023/06/05 05:01:09;;;;;;;4.00;3.63;;;;;;;;;;5075923;28;20386;-68
2023/06/05 05:03:35;;;;;;;5.97;4.45;;;;;;;;;;5075806;28;20476;-68
2023/06/05 05:06:03;;;;;;;5.28;4.78;;;;;;;;;;5075495;28;20519;-68
2023/06/05 05:08:31;;;;;;;5.78;4.85;;;;;;;;;;5075944;28;20270;-68
2023/06/05 05:10:57;;;;;;;8.65;4.72;;;;;;;;;;5075781;28;20472;-68
2023/06/05 05:13:23;;;;;;;6.45;4.57;;;;;;;;;;5075803;28;20209;-68
2023/06/05 05:15:52;;;;;;;5.75;4.47;;;;;;;;;;5075661;28;20213;-68
2023/06/05 05:18:19;;;;;;;5.13;4.50;;;;;;;;;;5075724;28;20224;-68
2023/06/05 05:20:45;;;;;;;5.00;4.30;;;;;;;;;;5075909;28;20213;-68
2023/06/05 05:23:12;;;;;;;7.82;4.60;;;;;;;;;;5077629;28;20517;-68
2023/06/05 05:25:39;;;;;;;8.13;4.53;;;;;;;;;;5073814;28;20270;-68
2023/06/05 05:28:06;;;;;;;7.13;5.18;;;;;;;;;;5079128;28;20224;-68
2023/06/05 05:30:32;;;;;;;8.02;4.70;;;;;;;;;;5079149;28;20222;-68
2023/06/05 05:32:59;;;;;;;8.52;5.15;;;;;;;;;;5079121;28;20212;-68
2023/06/05 05:35:25;;;;;;;6.10;4.57;;;;;;;;;;5078991;28;20208;-68
2023/06/05 05:37:51;;;;;;;9.15;4.68;;;;;;;;;;5079225;28;20232;-68
2023/06/05 05:40:19;;;;;;;5.40;4.90;;;;;;;;;;5078897;28;20265;-68
2023/06/05 05:42:45;;;;;;;6.22;4.70;;;;;;;;;;5078801;28;20213;-69
2023/06/05 05:45:11;;;;;;;5.32;4.80;;;;;;;;;;5079015;28;20403;-68
2023/06/05 05:47:37;;;;;;;5.13;4.68;;;;;;;;;;5079556;28;20273;-68
2023/06/05 05:50:05;;;;;;;6.65;4.72;;;;;;;;;;5079360;28;20212;-68
2023/06/05 05:52:31;;;;;;;5.03;4.60;;;;;;;;;;5079159;28;20424;-69
2023/06/05 05:54:59;;;;;;;9.10;4.63;;;;;;;;;;5078779;28;20208;-69
2023/06/05 05:57:27;;;;;;;6.20;4.95;;;;;;;;;;5078935;28;20482;-69
2023/06/05 05:59:53;;;;;;;7.63;4.78;;;;;;;;;;5078788;28;20212;-69
2023/06/05 06:02:20;;;;;;;5.82;5.10;;;;;;;;;;5078569;28;20209;-69
2023/06/05 06:04:47;;;;;;;6.90;4.38;;;;;;;;;;5078437;28;20284;-69
2023/06/05 06:07:13;;;;;;;18.73;4.93;;;;;;;;;;5078532;28;20215;-69
2023/06/05 06:09:40;;;;;;;7.78;4.63;;;;;;;;;;5078091;28;20219;-69
2023/06/05 06:12:07;;;;;;;11.02;5.00;;;;;;;;;;5077793;28;20240;-68
2023/06/05 06:14:35;;;;;;;7.50;5.18;;;;;;;;;;5078241;28;20216;-60
2023/06/05 06:17:02;;;;;;;10.13;5.00;;;;;;;;;;5076963;28;20220;-60
2023/06/05 06:19:28;;;;;;;8.73;4.97;;;;;;;;;;5075960;28;20240;-61
2023/06/05 06:21:55;;;;;;;6.25;4.45;;;;;;;;;;5075969;28;20219;-60
2023/06/05 06:24:21;;;;;;;8.75;4.93;;;;;;;;;;5074674;28;20200;-62
2023/06/05 06:26:48;;;;;;;7.47;4.70;;;;;;;;;;5069528;28;20378;-61
2023/06/05 06:29:15;;;;;;;6.05;4.65;;;;;;;;;;5072382;28;20212;-60
2023/06/05 06:31:43;;;;;;;6.57;4.75;;;;;;;;;;5074137;28;20218;-60
2023/06/05 06:34:10;;;;;;;5.20;4.68;;;;;;;;;;5076386;28;20504;-60
2023/06/05 06:36:40;;;;;;;8.45;5.10;;;;;;;;;;5077655;28;20212;-61
2023/06/05 06:39:07;;;;;;;10.60;5.20;;;;;;;;;;5077069;28;20429;-60
2023/06/05 06:41:34;;;;;;;5.75;4.63;;;;;;;;;;5076755;28;20221;-61
2023/06/05 06:44:00;;;;;;;10.88;4.22;;;;;;;;;;5076621;28;20574;-60
2023/06/05 06:46:26;;;;;;;9.90;4.68;;;;;;;;;;5069748;28;20235;-61
2023/06/05 06:48:54;;;;;;;4.10;3.80;;;;;;;;;;5077671;28;20209;-60
2023/06/05 06:51:21;;;;;;;7.70;4.30;;;;;;;;;;5077455;28;20287;-61
2023/06/05 06:53:48;;;;;;;9.65;4.43;;;;;;;;;;5077661;28;20205;-61
2023/06/05 06:56:15;;;;;;;7.30;4.82;;;;;;;;;;5076537;28;20220;-61
2023/06/05 06:58:42;;;;;;;5.82;4.32;;;;;;;;;;5077202;28;20224;-60
2023/06/05 07:01:08;;;;;;;5.65;3.72;;;;;;;;;;5077115;28;20239;-61
2023/06/05 07:03:35;;;;;;;4.97;3.95;;;;;;;;;;5077105;28;20247;-61
2023/06/05 07:06:02;;;;;;;9.10;3.80;;;;;;;;;;5076648;28;20232;-60
2023/06/05 07:08:29;;;;;;;4.38;3.97;;;;;;;;;;5077013;28;20209;-60
2023/06/05 07:10:55;;;;;;;4.32;3.92;;;;;;;;;;5076821;28;20216;-60
2023/06/05 07:13:21;;;;;;;4.03;3.70;;;;;;;;;;5076543;28;20468;-60
2023/06/05 07:15:48;;;;;;;11.52;3.85;;;;;;;;;;5077151;28;20216;-61
2023/06/05 07:18:14;;;;;;;3.70;3.40;;;;;;;;;;5076781;28;20284;-60
2023/06/05 07:20:40;;;;;;;6.90;3.83;;;;;;;;;;5074922;28;20529;-61
2023/06/05 07:23:08;;;;;;;6.43;3.70;;;;;;;;;;5076771;28;20220;-61
2023/06/05 07:25:34;;;;;;;5.97;3.92;;;;;;;;;;5069615;28;20266;-60
2023/06/05 07:28:01;;;;;;;7.88;4.07;;;;;;;;;;5076076;28;20229;-60
2023/06/05 07:30:28;;;;;;;5.88;4.38;;;;;;;;;;5076184;28;20208;-60
2023/06/05 07:32:54;;;;;;;10.02;4.20;;;;;;;;;;5076363;28;20215;-60
2023/06/05 07:35:21;;;;;;;8.18;3.80;;;;;;;;;;5076014;28;20209;-60
2023/06/05 07:37:47;;;;;;;4.63;3.85;;;;;;;;;;5076085;28;20247;-61
2023/06/05 07:40:16;;;;;;;5.85;3.55;;;;;;;;;;5076646;28;20213;-61
2023/06/05 07:42:42;;;;;;;6.22;4.00;;;;;;;;;;5076695;28;20222;-61
2023/06/05 07:45:09;;;;;;;4.07;3.42;;;;;;;;;;5075746;28;20235;-60
2023/06/05 07:47:35;;;;;;;10.02;4.10;;;;;;;;;;5076669;28;20494;-61
2023/06/05 07:50:03;;;;;;;6.45;3.63;;;;;;;;;;5075786;28;20234;-60
2023/06/05 07:52:30;;;;;;;3.83;3.50;;;;;;;;;;5073503;28;20381;-61
2023/06/05 07:54:57;;;;;;;4.35;3.65;;;;;;;;;;5076361;28;20448;-61
2023/06/05 07:57:25;;;;;;;4.75;4.00;;;;;;;;;;5075583;28;20277;-60
2023/06/05 07:59:52;;;;;;;4.18;3.85;;;;;;;;;;5075937;28;20389;-60
2023/06/05 08:02:18;;;;;;;5.13;4.13;;;;;;;;;;5076810;28;20519;-59
2023/06/05 08:04:45;;;;;;;5.95;3.20;;;;;;;;;;5076173;28;20213;-61
2023/06/05 08:07:11;;;;;;;6.30;4.03;;;;;;;;;;5076389;28;20216;-60
2023/06/05 08:09:37;;;;;;;4.05;3.78;;;;;;;;;;5076920;28;20234;-61
2023/06/05 08:12:04;;;;;;;4.15;3.75;;;;;;;;;;5076065;28;20254;-60
2023/06/05 08:14:31;;;;;;;4.20;3.60;;;;;;;;;;5075428;28;20212;-60
2023/06/05 08:16:58;;;;;;;3.88;3.58;;;;;;;;;;5076041;28;20266;-60
2023/06/05 08:19:24;;;;;;;7.18;4.25;;;;;;;;;;5075615;28;20281;-61
2023/06/05 08:21:51;;;;;;;4.80;3.70;;;;;;;;;;5076406;28;20208;-59
2023/06/05 08:24:18;;;;;;;5.07;4.00;;;;;;;;;;5076279;28;20573;-61
2023/06/05 08:26:44;;;;;;;5.40;3.70;;;;;;;;;;5068896;28;20527;-59
2023/06/05 08:29:12;;;;;;;4.35;3.72;;;;;;;;;;5076087;28;20212;-59
2023/06/05 08:31:39;;;;;;;3.65;3.33;;;;;;;;;;5075904;28;20219;-59
2023/06/05 08:34:06;;;;;;;3.78;3.47;;;;;;;;;;5076592;28;20218;-59
2023/06/05 08:36:32;;;;;;;5.05;3.72;;;;;;;;;;5076207;28;20243;-60
2023/06/05 08:38:58;;;;;;;6.25;3.75;;;;;;;;;;5076058;28;20300;-59
2023/06/05 08:41:25;;;;;;;6.30;3.75;;;;;;;;;;5075871;28;20219;-60
2023/06/05 08:43:52;;;;;;;6.82;3.90;;;;;;;;;;5075991;28;20459;-60
2023/06/05 08:46:18;;;;;;;6.97;3.83;;;;;;;;;;5075457;28;20569;-59
2023/06/05 08:48:46;;;;;;;6.40;4.13;;;;;;;;;;5075468;28;20204;-60
2023/06/05 08:51:14;;;;;;;4.75;4.20;;;;;;;;;;5076182;28;20212;-60
2023/06/05 08:53:42;;;;;;;6.38;3.90;;;;;;;;;;5076076;28;20216;-60
2023/06/05 08:56:09;;;;;;;4.20;3.80;;;;;;;;;;5075270;28;20520;-60
2023/06/05 08:58:35;;;;;;;8.85;4.28;;;;;;;;;;5077869;28;20254;-60
2023/06/05 09:01:01;;;;;;;5.93;4.10;;;;;;;;;;5079029;28;20523;-59
2023/06/05 09:03:28;;;;;;;7.35;4.25;;;;;;;;;;5079132;28;20216;-59
2023/06/05 09:05:55;;;;;;;6.00;4.22;;;;;;;;;;5079615;28;20212;-59
2023/06/05 09:08:29;;;;;;;4.70;4.05;;;;;;;;;;5079570;28;20521;-60
2023/06/05 09:10:55;;;;;;;6.13;3.80;;;;;;;;;;5079482;28;20566;-60
2023/06/05 09:13:24;;;;;;;9.35;4.18;;;;;;;;;;5079525;28;20273;-59
2023/06/05 09:15:51;;;;;;;3.88;3.58;;;;;;;;;;5079122;28;20231;-60
2023/06/05 09:18:17;;;;;;;8.23;4.07;;;;;;;;;;5079455;28;20543;-60
2023/06/05 09:20:45;;;;;;;4.93;3.90;;;;;;;;;;5078369;28;20273;-60
2023/06/05 09:23:26;;;;;;;5.05;3.80;;;;;;;;;;5078680;28;20276;-59
2023/06/05 09:25:53;;;;;;;6.15;3.92;;;;;;;;;;5077024;28;20550;-59
2023/06/05 09:28:20;;;;;;;4.07;3.67;;;;;;;;;;5078343;28;20620;-60
2023/06/05 09:30:54;;;;;;;6.60;3.90;;;;;;;;;;5078435;28;20219;-60
2023/06/05 09:33:20;;;;;;;6.13;4.07;;;;;;;;;;5078543;28;20333;-60
2023/06/05 09:35:46;;;;;;;3.85;3.53;;;;;;;;;;5078795;28;20212;-59
2023/06/05 09:38:27;;;;;;;4.45;4.07;;;;;;;;;;5078649;28;20289;-60
2023/06/05 09:40:53;;;;;;;4.32;4.03;;;;;;;;;;5078987;28;20211;-60
2023/06/05 09:43:22;;;;;;;4.28;3.88;;;;;;;;;;5078878;28;20221;-60
2023/06/05 09:45:48;;;;;;;7.55;3.83;;;;;;;;;;5078395;28;20242;-59
2023/06/05 09:48:15;;;;;;;3.67;3.33;;;;;;;;;;5077911;28;20212;-60
2023/06/05 09:50:42;;;;;;;4.53;3.40;;;;;;;;;;5078115;28;20542;-60
2023/06/05 09:53:09;;;;;;;4.05;3.75;;;;;;;;;;5078199;28;20212;-59
2023/06/05 09:55:37;;;;;;;3.80;3.50;;;;;;;;;;5077317;28;20254;-59
2023/06/05 09:58:10;;;;;;;5.72;4.00;;;;;;;;;;5077892;28;20392;-59
2023/06/05 10:00:38;;;;;;;4.75;3.75;;;;;;;;;;5078281;28;20203;-59
2023/06/05 10:03:06;;;;;;;4.15;3.75;;;;;;;;;;5077344;28;20253;-59
2023/06/05 10:05:35;;;;;;;8.75;3.95;;;;;;;;;;5077064;28;20243;-59
2023/06/05 10:08:02;;;;;;;7.43;3.35;;;;;;;;;;5076871;28;20314;-59
2023/06/05 10:10:30;;;;;;;4.60;3.40;;;;;;;;;;5076962;28;20802;-59
2023/06/05 10:12:58;;;;;;;4.72;3.72;;;;;;;;;;5077560;28;20211;-59
2023/06/05 10:15:24;;;;;;;5.72;3.50;;;;;;;;;;5077136;28;20214;-59
2023/06/05 10:17:51;;;;;;;3.88;3.60;;;;;;;;;;5077894;28;20207;-59
2023/06/05 10:20:17;;;;;;;3.85;3.13;;;;;;;;;;5077322;28;20338;-59
2023/06/05 10:22:45;;;;;;;4.40;3.33;;;;;;;;;;5077994;28;20276;-59
2023/06/05 10:25:12;;;;;;;4.13;3.40;;;;;;;;;;5077519;28;20212;-60
2023/06/05 10:27:54;;;;;;;5.00;3.42;;;;;;;;;;5076717;28;20231;-60
2023/06/05 10:30:33;;;;;;;4.22;3.80;;;;;;;;;;5077362;28;20202;-59
2023/06/05 10:33:03;;;;;;;5.00;3.60;;;;;;;;;;5077571;28;20516;-60
2023/06/05 10:35:38;;;;;;;3.75;3.10;;;;;;;;;;5074172;28;20245;-59
2023/06/05 10:38:09;;;;;;;4.03;3.47;;;;;;;;;;5077166;28;20250;-60
2023/06/05 10:40:35;;;;;;;4.10;3.50;;;;;;;;;;5072234;28;20441;-61
2023/06/05 10:43:20;;;;;;;3.30;3.08;;;;;;;;;;5072868;28;20445;-61
2023/06/05 10:45:48;;;;;;;3.70;3.35;;;;;;;;;;5072836;28;20382;-61
2023/06/05 10:48:16;;;;;;;3.83;3.20;;;;;;;;;;5079571;28;20207;-60
2023/06/05 10:50:42;;;;;;;3.58;3.28;;;;;;;;;;5072684;28;20200;-60
2023/06/05 10:53:29;;;;;;;3.53;3.28;;;;;;;;;;5070972;28;20269;-60
2023/06/05 10:55:55;;;;;;;4.32;3.50;;;;;;;;;;5061915;28;20406;-60
2023/06/05 10:58:22;;;;;;;4.03;3.72;;;;;;;;;;5075992;28;20557;-60
2023/06/05 11:01:08;;;;;;;3.08;2.83;;;;;;;;;;5074320;28;20215;-59
2023/06/05 11:03:49;;;;;;;6.55;3.40;;;;;;;;;;5069741;28;20218;-61
2023/06/05 11:06:17;;;;;;;4.13;2.90;;;;;;;;;;5075121;28;20266;-60
2023/06/05 11:08:43;;;;;;;2.95;2.75;;;;;;;;;;5073180;28;20229;-60
2023/06/05 11:11:12;;;;;;;4.80;3.33;;;;;;;;;;5071863;28;20207;-60
2023/06/05 11:13:54;;;;;;;7.05;3.20;;;;;;;;;;5077913;28;20571;-60
2023/06/05 11:16:28;;;;;;;3.42;3.10;;;;;;;;;;5080313;28;20278;-59
2023/06/05 11:18:55;;;;;;;6.00;3.45;;;;;;;;;;5075746;28;20467;-60
2023/06/05 11:21:23;;;;;;;7.00;3.25;;;;;;;;;;5067565;28;20209;-59
2023/06/05 11:24:04;;;;;;;3.17;2.97;;;;;;;;;;5076927;28;20464;-60
2023/06/05 11:26:40;;;;;;;4.53;3.47;;;;;;;;;;5068276;28;20211;-59
2023/06/05 11:29:11;;;;;;;5.80;3.53;;;;;;;;;;5074126;28;20308;-59
2023/06/05 11:31:38;;;;;;;3.90;3.35;;;;;;;;;;5075015;28;20208;-59
2023/06/05 11:34:10;;;;;;;4.32;3.10;;;;;;;;;;5078634;28;20208;-59
2023/06/05 11:36:38;;;;;;;5.78;3.20;;;;;;;;;;5075865;28;20432;-59
2023/06/05 11:39:04;;;;;;;5.50;3.45;;;;;;;;;;5071803;28;20601;-59
2023/06/05 11:41:31;;;;;;;4.53;2.97;;;;;;;;;;5069103;28;20442;-60
2023/06/05 11:43:57;;;;;;;3.30;3.00;;;;;;;;;;5077939;28;20239;-60
2023/06/05 11:46:36;;;;;;;6.43;3.08;;;;;;;;;;5077861;28;20534;-60
2023/06/05 11:49:02;;;;;;;3.53;3.13;;;;;;;;;;5073400;28;20204;-60
2023/06/05 11:51:33;;;;;;;3.40;2.90;;;;;;;;;;5079814;28;20566;-60
2023/06/05 11:54:01;;;;;;;3.38;2.97;;;;;;;;;;5079389;28;20208;-60
2023/06/05 11:56:28;;;;;;;3.03;2.72;;;;;;;;;;5078593;28;20238;-60
2023/06/05 11:58:55;;;;;;;3.42;3.03;;;;;;;;;;5079017;28;20238;-60
2023/06/05 12:01:22;;;;;;;4.60;2.88;;;;;;;;;;5078423;28;20273;-59
2023/06/05 12:03:49;;;;;;;3.58;3.33;;;;;;;;;;5079583;28;20321;-59
2023/06/05 12:06:17;;;;;;;5.03;3.28;;;;;;;;;;5079207;28;20416;-58
2023/06/05 12:08:44;;;;;;;3.17;2.88;;;;;;;;;;5078777;28;20250;-59
2023/06/05 12:11:22;;;;;;;5.95;2.83;;;;;;;;;;5079695;28;20200;-59
2023/06/05 12:13:49;;;;;;;3.42;3.13;;;;;;;;;;5073723;28;20235;-58
2023/06/05 12:16:15;;;;;;;5.50;2.80;;;;;;;;;;5079411;28;20207;-59
2023/06/05 12:18:42;;;;;;;3.70;3.40;;;;;;;;;;5079069;28;20207;-60
2023/06/05 12:21:19;;;;;;;3.20;3.00;;;;;;;;;;5079556;28;20211;-60
2023/06/05 12:23:45;;;;;;;5.13;3.33;;;;;;;;;;5079015;28;20343;-59
2023/06/05 12:26:12;;;;;;;4.43;3.22;;;;;;;;;;5078545;28;20208;-59
2023/06/05 12:28:39;;;;;;;3.58;3.38;;;;;;;;;;5073026;28;20508;-58
2023/06/05 12:31:06;;;;;;;3.40;3.03;;;;;;;;;;5078534;28;20208;-59
2023/06/05 12:33:32;;;;;;;4.85;3.60;;;;;;;;;;5082851;28;20208;-58
2023/06/05 12:36:05;;;;;;;3.70;3.40;;;;;;;;;;5082250;28;20208;-59
2023/06/05 12:38:31;;;;;;;3.42;3.10;;;;;;;;;;5082561;28;20211;-58
2023/06/05 12:40:58;;;;;;;5.30;3.65;;;;;;;;;;5082034;28;20269;-59
2023/06/05 12:43:24;;;;;;;3.80;3.38;;;;;;;;;;5082376;28;20217;-58
2023/06/05 12:45:52;;;;;;;3.50;3.20;;;;;;;;;;5083017;28;20559;-59
2023/06/05 12:48:20;;;;;;;3.25;3.08;;;;;;;;;;5080574;28;20219;-59
2023/06/05 12:50:46;;;;;;;3.55;3.05;;;;;;;;;;5082747;28;20211;-58
2023/06/05 12:53:12;;;;;;;3.35;3.10;;;;;;;;;;5076139;28;20254;-59
2023/06/05 12:55:41;;;;;;;3.42;3.22;;;;;;;;;;5077168;28;20215;-59
2023/06/05 12:58:07;;;;;;;3.80;3.50;;;;;;;;;;5076607;28;20209;-59
2023/06/05 13:00:33;;;;;;;4.43;3.85;;;;;;;;;;5070385;28;20231;-58
2023/06/05 13:03:03;;;;;;;8.38;3.65;;;;;;;;;;5075790;28;20549;-59
2023/06/05 13:05:31;;;;;;;8.63;3.58;;;;;;;;;;5082667;28;20254;-59
2023/06/05 13:07:57;;;;;;;3.65;3.33;;;;;;;;;;5073080;28;20246;-61
2023/06/05 13:10:23;;;;;;;3.60;3.40;;;;;;;;;;5074100;28;20208;-59
2023/06/05 13:12:50;;;;;;;4.07;3.47;;;;;;;;;;5076508;28;20207;-59
2023/06/05 13:15:16;;;;;;;3.70;3.50;;;;;;;;;;5067195;28;20217;-59
2023/06/05 13:17:43;;;;;;;4.40;3.67;;;;;;;;;;5079284;28;20216;-59
2023/06/05 13:20:10;;;;;;;4.13;3.67;;;;;;;;;;5076149;28;20227;-59
2023/06/05 13:22:37;;;;;;;3.78;3.47;;;;;;;;;;5065328;28;20219;-59
2023/06/05 13:25:03;;;;;;;3.90;3.55;;;;;;;;;;5081341;28;20207;-58
2023/06/05 13:27:29;;;;;;;5.85;3.20;;;;;;;;;;5073988;28;20227;-59
2023/06/05 13:29:56;;;;;;;3.22;3.03;;;;;;;;;;5075784;28;20204;-59
2023/06/05 13:32:22;;;;;;;6.70;3.47;;;;;;;;;;5075843;28;20251;-59
2023/06/05 13:34:48;;;;;;;5.55;3.50;;;;;;;;;;5076554;28;20204;-59
2023/06/05 13:37:16;;;;;;;5.40;3.50;;;;;;;;;;5073103;28;20439;-58
2023/06/05 13:39:42;;;;;;;3.92;3.47;;;;;;;;;;5080136;28;20573;-59
2023/06/05 13:42:09;;;;;;;4.10;3.80;;;;;;;;;;5080766;28;20207;-59
2023/06/05 13:44:35;;;;;;;4.20;3.90;;;;;;;;;;5071954;28;20449;-70
2023/06/05 13:47:02;;;;;;;3.40;3.10;;;;;;;;;;5081424;28;20215;-70
2023/06/05 13:49:29;;;;;;;5.00;3.95;;;;;;;;;;5080355;28;20416;-70
2023/06/05 13:51:55;;;;;;;3.88;3.15;;;;;;;;;;5080800;28;20261;-70
2023/06/05 13:54:22;;;;;;;6.00;3.88;;;;;;;;;;5065710;28;20216;-70
2023/06/05 13:56:51;;;;;;;3.80;3.50;;;;;;;;;;5073681;28;20209;-70
2023/06/05 13:59:17;;;;;;;5.05;3.33;;;;;;;;;;5080989;28;20208;-70
2023/06/05 14:01:43;;;;;;;4.03;3.60;;;;;;;;;;5076284;28;20212;-71
2023/06/05 14:04:09;;;;;;;6.45;3.55;;;;;;;;;;5076332;28;20234;-70
2023/06/05 14:06:38;;;;;;;3.53;3.33;;;;;;;;;;5071135;28;20246;-70
2023/06/05 14:09:04;;;;;;;7.38;3.95;;;;;;;;;;5067355;28;20215;-70
2023/06/05 14:11:32;;;;;;;4.68;3.70;;;;;;;;;;5075284;28;20239;-70
2023/06/05 14:13:59;;;;;;;4.30;3.88;;;;;;;;;;5077873;28;20255;-70
2023/06/05 14:16:25;;;;;;;3.90;3.60;;;;;;;;;;5080675;28;20410;-70
2023/06/05 14:18:51;;;;;;;4.10;3.90;;;;;;;;;;5069768;28;20209;-70
2023/06/05 14:21:18;;;;;;;4.68;3.80;;;;;;;;;;5071096;28;20296;-70
2023/06/05 14:23:44;;;;;;;6.22;3.40;;;;;;;;;;5080745;28;20464;-71
2023/06/05 14:26:10;;;;;;;3.72;3.53;;;;;;;;;;5078440;28;20508;-71
2023/06/05 14:28:38;;;;;;;3.55;3.35;;;;;;;;;;5079113;28;20238;-71
2023/06/05 14:31:04;;;;;;;3.67;3.47;;;;;;;;;;5075787;28;20443;-71
2023/06/05 14:33:31;;;;;;;4.60;4.20;;;;;;;;;;5076082;28;20577;-71
2023/06/05 14:35:58;;;;;;;3.95;3.65;;;;;;;;;;5068739;28;20224;-71
2023/06/05 14:38:25;;;;;;;5.68;3.40;;;;;;;;;;5076790;28;20222;-71
2023/06/05 14:40:52;;;;;;;10.30;4.00;;;;;;;;;;5074005;28;20425;-71
2023/06/05 14:43:19;;;;;;;3.70;3.42;;;;;;;;;;5065586;28;20208;-72
2023/06/05 14:45:46;;;;;;;9.88;3.70;;;;;;;;;;5069487;28;20384;-71